createdAt,value
2023-06-13T00:00:34.147Z,18.60
2023-06-13T00:03:04.575Z,19.63
2023-06-13T00:05:35.464Z,17.50
2023-06-13T00:08:05.891Z,19.80
2023-06-13T00:10:36.257Z,20.63
2023-06-13T00:13:06.276Z,19.35
2023-06-13T00:15:38.138Z,18.50
2023-06-13T00:18:08.216Z,19.13
2023-06-13T00:20:39.450Z,23.65
2023-06-13T00:23:11.161Z,25.38
2023-06-13T00:25:41.748Z,23.75
2023-06-13T00:28:12.398Z,20.85
2023-06-13T00:30:45.657Z,22.90
2023-06-13T00:33:19.486Z,21.27
2023-06-13T00:35:50.013Z,28.42
2023-06-13T00:38:23.405Z,24.98
2023-06-13T00:40:54.342Z,32.10
2023-06-13T00:43:25.471Z,26.25
2023-06-13T00:45:57.397Z,25.60
2023-06-13T00:48:27.491Z,22.02
2023-06-13T00:50:59.756Z,28.30
2023-06-13T00:53:32.116Z,26.35
2023-06-13T00:56:09.298Z,35.55
2023-06-13T00:58:39.965Z,30.98
2023-06-13T01:01:12.225Z,36.40
2023-06-13T01:03:47.768Z,27.50
2023-06-13T01:06:19.054Z,26.02
2023-06-13T01:08:50.147Z,21.42
2023-06-13T01:11:33.802Z,15.77
2023-06-13T01:14:16.685Z,21.42
2023-06-13T01:16:51.693Z,19.48
2023-06-13T01:19:45.659Z,26.70
2023-06-13T01:22:23.403Z,18.40
2023-06-13T01:25:13.885Z,14.93
2023-06-13T01:27:51.648Z,11.85
2023-06-13T01:30:22.487Z,10.80
2023-06-13T01:32:54.770Z,10.98
2023-06-13T01:35:27.343Z,11.05
2023-06-13T01:37:58.137Z,11.30
2023-06-13T01:40:28.083Z,10.68
2023-06-13T01:42:57.995Z,9.27
2023-06-13T01:45:28.942Z,11.40
2023-06-13T01:48:31.874Z,11.02
2023-06-13T01:51:13.278Z,14.30
2023-06-13T01:53:51.946Z,14.35
2023-06-13T01:56:30.168Z,17.20
2023-06-13T01:59:06.598Z,20.48
2023-06-13T02:01:44.314Z,18.15
2023-06-13T02:04:14.566Z,15.23
2023-06-13T02:06:44.964Z,13.07
2023-06-13T02:09:16.560Z,18.80
2023-06-13T02:11:47.879Z,17.90
2023-06-13T02:14:17.950Z,15.73
2023-06-13T02:16:48.501Z,20.65
2023-06-13T02:19:18.613Z,19.15
2023-06-13T02:21:49.762Z,15.07
2023-06-13T02:24:21.295Z,17.08
2023-06-13T02:26:53.155Z,15.55
2023-06-13T02:29:23.158Z,14.57
2023-06-13T02:31:53.815Z,12.82
2023-06-13T02:34:24.038Z,15.82
2023-06-13T02:36:57.319Z,18.00
2023-06-13T02:39:27.348Z,17.48
2023-06-13T02:41:57.318Z,20.45
2023-06-13T02:44:27.734Z,22.60
2023-06-13T02:46:58.748Z,25.42
2023-06-13T02:49:29.168Z,20.25
2023-06-13T02:51:59.198Z,16.75
2023-06-13T02:54:29.684Z,18.65
2023-06-13T02:56:59.768Z,17.35
2023-06-13T02:59:30.404Z,16.23
2023-06-13T03:02:00.898Z,16.83
2023-06-13T03:04:31.563Z,18.75
2023-06-13T03:07:02.753Z,17.90
2023-06-13T03:09:33.517Z,17.50
2023-06-13T03:12:05.199Z,16.70
2023-06-13T03:14:37.728Z,18.02
2023-06-13T03:17:08.974Z,16.65
2023-06-13T03:19:40.152Z,15.25
2023-06-13T03:22:15.840Z,16.50
2023-06-13T03:24:48.050Z,17.77
2023-06-13T03:27:19.044Z,16.67
2023-06-13T03:29:49.941Z,16.27
2023-06-13T03:32:20.209Z,17.75
2023-06-13T03:34:52.132Z,16.80
2023-06-13T03:37:22.399Z,18.73
2023-06-13T03:39:52.882Z,17.85
2023-06-13T03:42:23.019Z,24.48
2023-06-13T03:44:54.132Z,24.35
2023-06-13T03:47:24.427Z,28.50
2023-06-13T03:49:55.756Z,25.48
2023-06-13T03:52:26.634Z,21.42
2023-06-13T03:54:57.202Z,35.95
2023-06-13T03:57:27.319Z,39.83
2023-06-13T03:59:58.064Z,33.60
2023-06-13T04:02:29.225Z,27.73
2023-06-13T04:04:59.854Z,14.85
2023-06-13T04:07:36.027Z,17.15
2023-06-13T04:10:08.920Z,20.45
2023-06-13T04:12:39.420Z,20.88
2023-06-13T04:15:10.466Z,24.00
2023-06-13T04:17:40.776Z,21.40
2023-06-13T04:20:13.273Z,21.65
2023-06-13T04:22:44.607Z,23.33
2023-06-13T04:25:15.388Z,22.42
2023-06-13T04:27:47.273Z,23.33
2023-06-13T04:30:19.077Z,23.90
2023-06-13T04:32:51.604Z,24.25
2023-06-13T04:35:24.639Z,20.33
2023-06-13T04:37:55.429Z,18.27
2023-06-13T04:40:33.830Z,18.27
2023-06-13T04:43:06.348Z,18.70
2023-06-13T04:45:38.436Z,18.38
2023-06-13T04:48:11.945Z,17.42
2023-06-13T04:50:46.622Z,19.63
2023-06-13T04:53:18.536Z,32.78
2023-06-13T04:55:50.471Z,21.35
2023-06-13T04:58:20.777Z,20.80
2023-06-13T05:00:51.423Z,19.10
2023-06-13T05:03:22.540Z,15.63
2023-06-13T05:05:53.459Z,15.00
2023-06-13T05:08:23.949Z,15.85
2023-06-13T05:10:55.768Z,14.57
2023-06-13T05:13:25.938Z,14.45
2023-06-13T05:15:57.492Z,15.60
2023-06-13T05:18:31.862Z,16.38
2023-06-13T05:21:02.752Z,16.48
2023-06-13T05:23:33.977Z,17.25
2023-06-13T05:26:04.766Z,18.73
2023-06-13T05:28:35.116Z,15.02
2023-06-13T05:31:05.909Z,16.60
2023-06-13T05:33:36.226Z,16.58
2023-06-13T05:36:07.337Z,13.55
2023-06-13T05:38:38.884Z,12.82
2023-06-13T05:41:09.578Z,13.32
2023-06-13T05:43:39.857Z,17.88
2023-06-13T05:46:11.805Z,12.95
2023-06-13T05:48:42.323Z,16.77
2023-06-13T05:51:13.151Z,14.05
2023-06-13T05:53:43.401Z,15.75
2023-06-13T05:56:14.237Z,15.18
2023-06-13T05:58:44.488Z,13.05
2023-06-13T06:01:15.174Z,11.98
2023-06-13T06:03:45.411Z,13.50
2023-06-13T06:06:16.627Z,17.98
2023-06-13T06:08:46.884Z,21.52
2023-06-13T06:11:17.969Z,27.40
2023-06-13T06:13:48.218Z,14.95
2023-06-13T06:16:19.019Z,20.42
2023-06-13T06:18:49.448Z,24.60
2023-06-13T06:21:20.232Z,21.70
2023-06-13T06:23:50.552Z,27.83
2023-06-13T06:26:23.338Z,22.73
2023-06-13T06:28:54.121Z,14.00
2023-06-13T06:31:26.616Z,24.13
2023-06-13T06:33:57.222Z,23.75
2023-06-13T06:36:27.954Z,14.93
2023-06-13T06:38:58.194Z,19.08
2023-06-13T06:41:29.297Z,19.70
2023-06-13T06:43:59.615Z,13.98
2023-06-13T06:46:32.703Z,21.35
2023-06-13T06:49:03.970Z,14.57
2023-06-13T06:51:34.983Z,20.67
2023-06-13T06:54:05.374Z,19.50
2023-06-13T06:56:36.167Z,16.42
2023-06-13T06:59:06.422Z,18.55
2023-06-13T07:01:37.707Z,20.05
2023-06-13T07:04:08.451Z,21.60
2023-06-13T07:06:39.616Z,20.40
2023-06-13T07:09:09.790Z,19.00
2023-06-13T07:11:40.480Z,20.42
2023-06-13T07:14:10.667Z,21.92
2023-06-13T07:16:41.525Z,19.42
2023-06-13T07:19:12.566Z,21.67
2023-06-13T07:21:43.197Z,19.48
2023-06-13T07:24:13.602Z,16.13
2023-06-13T07:26:44.295Z,20.73
2023-06-13T07:29:14.686Z,25.77
2023-06-13T07:31:45.583Z,17.65
2023-06-13T07:34:34.482Z,13.15
2023-06-13T07:37:06.810Z,11.70
2023-06-13T07:39:37.031Z,11.75
2023-06-13T07:42:11.726Z,22.33
2023-06-13T07:44:43.642Z,22.35
2023-06-13T07:47:14.366Z,20.88
2023-06-13T07:49:44.595Z,23.80
2023-06-13T07:52:15.253Z,22.63
2023-06-13T07:54:46.111Z,17.60
2023-06-13T07:57:33.747Z,23.42
2023-06-13T08:00:20.333Z,15.52
2023-06-13T08:02:51.152Z,13.27
2023-06-13T08:05:21.488Z,22.33
2023-06-13T08:07:53.321Z,20.05
2023-06-13T08:10:23.874Z,20.00
2023-06-13T08:12:55.696Z,21.10
2023-06-13T08:15:26.165Z,21.45
2023-06-13T08:17:59.727Z,31.85
2023-06-13T08:20:30.080Z,26.95
2023-06-13T08:23:02.092Z,28.00
2023-06-13T08:25:32.576Z,30.23
2023-06-13T08:28:03.301Z,26.65
2023-06-13T08:30:33.631Z,20.70
2023-06-13T08:33:04.857Z,15.30
2023-06-13T08:35:38.837Z,14.80
2023-06-13T08:40:40.076Z,13.80
2023-06-13T08:43:10.906Z,9.73
2023-06-13T08:45:41.385Z,11.45
2023-06-13T08:48:12.504Z,12.82
2023-06-13T08:50:42.813Z,12.65
2023-06-13T08:53:15.676Z,13.52
2023-06-13T08:58:22.769Z,22.15
2023-06-13T09:00:54.346Z,23.08
2023-06-13T09:03:27.571Z,31.80
2023-06-13T09:05:59.286Z,13.27
2023-06-13T09:08:32.129Z,10.75
2023-06-13T09:11:02.766Z,11.05
2023-06-13T09:13:34.541Z,13.20
2023-06-13T09:16:05.057Z,11.52
2023-06-13T09:18:41.388Z,12.32
2023-06-13T09:21:13.004Z,11.05
2023-06-13T09:23:43.839Z,11.45
2023-06-13T09:26:14.632Z,10.02
2023-06-13T09:28:49.736Z,13.55
2023-06-13T09:31:20.660Z,12.52
2023-06-13T09:33:51.583Z,11.85
2023-06-13T09:36:22.146Z,10.95
2023-06-13T09:38:53.397Z,9.60
2023-06-13T09:41:24.254Z,8.68
2023-06-13T09:43:55.481Z,9.18
2023-06-13T09:46:27.006Z,7.90
2023-06-13T09:48:58.331Z,7.10
2023-06-13T09:51:31.788Z,8.68
2023-06-13T09:54:05.307Z,8.07
2023-06-13T09:56:35.918Z,7.53
2023-06-13T09:59:06.733Z,7.22
2023-06-13T10:01:37.313Z,6.82
2023-06-13T10:04:08.272Z,18.13
2023-06-13T10:06:38.945Z,18.52
2023-06-13T10:09:09.815Z,13.18
2023-06-13T10:11:43.459Z,21.92
2023-06-13T10:14:20.347Z,18.98
2023-06-13T10:17:07.496Z,14.70
2023-06-13T10:19:42.128Z,16.75
2023-06-13T10:22:17.189Z,17.08
2023-06-13T10:24:52.392Z,19.67
2023-06-13T10:27:24.802Z,14.35
2023-06-13T10:30:33.907Z,16.33
2023-06-13T10:33:25.011Z,17.60
2023-06-13T10:35:56.144Z,16.98
2023-06-13T10:38:57.213Z,20.83
2023-06-13T10:41:43.192Z,18.35
2023-06-13T10:44:38.621Z,16.92
2023-06-13T10:47:12.501Z,13.05
2023-06-13T10:49:45.604Z,14.07
2023-06-13T10:52:16.539Z,36.03
2023-06-13T10:54:55.162Z,19.13
2023-06-13T10:57:25.934Z,15.48
2023-06-13T10:59:57.976Z,16.20
2023-06-13T11:02:28.596Z,13.52
2023-06-13T11:05:03.694Z,15.25
2023-06-13T11:07:36.389Z,30.77
2023-06-13T11:10:11.161Z,42.08
2023-06-13T11:12:44.019Z,37.47
2023-06-13T11:15:28.757Z,24.25
2023-06-13T11:18:11.588Z,20.45
2023-06-13T11:20:52.112Z,10.77
2023-06-13T11:23:27.302Z,10.90
2023-06-13T11:25:57.742Z,10.73
2023-06-13T11:28:28.573Z,15.75
2023-06-13T11:31:03.465Z,23.55
2023-06-13T11:33:39.001Z,22.73
2023-06-13T11:36:09.774Z,15.48
2023-06-13T11:38:45.137Z,17.05
2023-06-13T11:41:15.429Z,18.40
2023-06-13T11:43:47.206Z,13.57
2023-06-13T11:46:17.663Z,14.13
2023-06-13T11:48:51.605Z,26.92
2023-06-13T11:51:22.720Z,51.83
2023-06-13T11:53:57.900Z,26.75
2023-06-13T11:56:30.275Z,19.08
2023-06-13T11:59:01.260Z,30.00
2023-06-13T12:01:32.077Z,16.92
2023-06-13T12:04:04.977Z,40.85
2023-06-13T12:06:35.312Z,24.30
2023-06-13T12:09:08.621Z,24.75
2023-06-13T12:11:39.301Z,34.33
2023-06-13T12:14:10.168Z,38.65
2023-06-13T12:16:41.529Z,49.38
2023-06-13T12:19:12.361Z,32.85
2023-06-13T12:21:43.480Z,38.28
2023-06-13T12:24:15.188Z,47.10
2023-06-13T12:26:46.417Z,38.90
2023-06-13T12:29:19.481Z,44.80
2023-06-13T12:31:50.361Z,47.28
2023-06-13T12:34:31.861Z,42.75
2023-06-13T12:37:07.090Z,27.90
2023-06-13T12:39:38.070Z,29.15
2023-06-13T12:42:12.974Z,19.30
2023-06-13T12:44:43.682Z,16.60
2023-06-13T12:47:14.090Z,17.27
2023-06-13T12:49:44.874Z,15.98
2023-06-13T12:52:19.043Z,10.57
2023-06-13T12:54:49.773Z,7.60
2023-06-13T12:57:21.738Z,7.78
2023-06-13T12:59:56.083Z,6.15
2023-06-13T13:02:27.239Z,9.32
2023-06-13T13:05:02.662Z,9.38
2023-06-13T13:07:33.546Z,9.35
2023-06-13T13:10:04.208Z,7.82
2023-06-13T13:12:34.512Z,7.00
2023-06-13T13:15:05.255Z,6.15
2023-06-13T13:17:35.466Z,5.75
2023-06-13T13:20:07.139Z,5.68
2023-06-13T13:22:37.920Z,7.47
2023-06-13T13:25:08.905Z,7.93
2023-06-13T13:27:39.122Z,9.82
2023-06-13T13:30:10.464Z,7.88
2023-06-13T13:32:40.798Z,8.32
2023-06-13T13:35:11.633Z,7.40
2023-06-13T13:37:41.819Z,7.45
2023-06-13T13:40:12.916Z,6.55
2023-06-13T13:42:43.111Z,5.65
2023-06-13T13:45:14.749Z,5.05
2023-06-13T13:47:45.396Z,5.25
2023-06-13T13:50:17.857Z,5.38
2023-06-13T13:52:48.178Z,5.65
2023-06-13T13:55:19.127Z,5.97
2023-06-13T13:57:49.358Z,5.78
2023-06-13T14:00:20.444Z,5.57
2023-06-13T14:02:51.365Z,8.05
2023-06-13T14:05:22.877Z,7.13
2023-06-13T14:07:54.123Z,6.45
2023-06-13T14:10:25.302Z,7.82
2023-06-13T14:12:55.748Z,7.70
2023-06-13T14:15:26.419Z,6.88
2023-06-13T14:17:57.598Z,7.80
2023-06-13T14:20:28.287Z,7.13
2023-06-13T14:22:58.790Z,7.43
2023-06-13T14:25:29.518Z,7.40
2023-06-13T14:27:59.753Z,7.03
2023-06-13T14:30:30.633Z,7.07
2023-06-13T14:33:00.823Z,6.60
2023-06-13T14:35:31.604Z,6.57
2023-06-13T14:38:01.788Z,6.45
2023-06-13T14:40:33.653Z,8.20
2023-06-13T14:43:04.662Z,8.00
2023-06-13T14:45:35.243Z,7.68
2023-06-13T14:48:05.959Z,8.38
2023-06-13T14:50:36.907Z,8.02
2023-06-13T14:53:07.185Z,6.93
2023-06-13T14:55:39.252Z,7.50
2023-06-13T14:58:09.634Z,6.20
2023-06-13T15:00:40.335Z,5.82
2023-06-13T15:03:10.639Z,4.95
2023-06-13T15:05:41.660Z,5.55
2023-06-13T15:08:11.922Z,4.93
2023-06-13T15:10:42.603Z,6.28
2023-06-13T15:13:13.329Z,6.30
2023-06-13T15:15:54.381Z,6.07
2023-06-13T15:18:25.328Z,6.72
2023-06-13T15:20:56.384Z,6.90
2023-06-13T15:23:26.796Z,6.60
2023-06-13T15:25:57.919Z,5.70
2023-06-13T15:28:29.270Z,7.05
2023-06-13T15:31:02.128Z,6.43
2023-06-13T15:33:38.393Z,6.15
2023-06-13T15:36:10.245Z,5.72
2023-06-13T15:38:41.758Z,6.50
2023-06-13T15:41:13.463Z,6.32
2023-06-13T15:43:44.417Z,6.20
2023-06-13T15:46:15.550Z,6.50
2023-06-13T15:48:45.919Z,6.30
2023-06-13T15:51:17.126Z,6.85
2023-06-13T15:53:48.513Z,6.75
2023-06-13T15:56:19.413Z,6.45
2023-06-13T15:58:50.022Z,6.38
2023-06-13T16:01:20.757Z,6.55
2023-06-13T16:03:51.528Z,6.70
2023-06-13T16:06:22.674Z,6.00
2023-06-13T16:08:55.355Z,7.85
2023-06-13T16:11:26.638Z,7.10
2023-06-13T16:14:00.137Z,7.25
2023-06-13T16:16:31.041Z,6.88
2023-06-13T16:19:01.559Z,6.30
2023-06-13T16:21:32.690Z,6.20
2023-06-13T16:24:03.056Z,6.10
2023-06-13T16:26:34.451Z,6.10
2023-06-13T16:29:05.688Z,5.95
2023-06-13T16:31:38.697Z,6.03
2023-06-13T16:36:40.667Z,5.65
2023-06-13T16:39:11.814Z,5.00
2023-06-13T16:41:43.076Z,5.13
2023-06-13T16:44:13.476Z,5.25
2023-06-13T16:46:44.849Z,5.85
2023-06-13T16:49:16.272Z,5.70
2023-06-13T16:51:47.954Z,4.60
2023-06-13T16:54:19.094Z,4.80
2023-06-13T16:56:50.288Z,4.38
2023-06-13T16:59:20.959Z,3.90
2023-06-13T17:01:52.245Z,3.72
2023-06-13T17:04:23.141Z,4.20
2023-06-13T17:06:55.203Z,4.30
2023-06-13T17:09:27.659Z,4.32
2023-06-13T17:11:59.257Z,4.32
2023-06-13T17:14:29.916Z,5.13
2023-06-13T17:17:04.165Z,4.25
2023-06-13T17:19:35.715Z,4.45
2023-06-13T17:22:07.464Z,3.80
2023-06-13T17:24:38.421Z,4.20
2023-06-13T17:27:09.523Z,4.03
2023-06-13T17:29:39.908Z,4.07
2023-06-13T17:32:12.133Z,3.60
2023-06-13T17:34:43.338Z,3.85
2023-06-13T17:37:14.644Z,3.42
2023-06-13T17:39:45.071Z,3.78
2023-06-13T17:42:16.239Z,3.55
2023-06-13T17:44:46.854Z,3.42
2023-06-13T17:47:17.641Z,4.05
2023-06-13T17:49:47.742Z,3.25
2023-06-13T17:52:18.364Z,3.55
2023-06-13T17:54:49.377Z,2.90
2023-06-13T17:57:20.334Z,3.50
2023-06-13T17:59:50.510Z,3.20
2023-06-13T18:02:21.197Z,3.30
2023-06-13T18:04:51.569Z,3.60
2023-06-13T18:07:22.568Z,3.70
2023-06-13T18:09:52.937Z,3.25
2023-06-13T18:12:23.648Z,3.65
2023-06-13T18:14:53.804Z,3.83
2023-06-13T18:17:24.982Z,3.60
2023-06-13T18:19:55.285Z,4.05
2023-06-13T18:22:26.366Z,4.25
2023-06-13T18:24:56.669Z,3.92
2023-06-13T18:27:27.453Z,4.18
2023-06-13T18:29:57.979Z,4.25
2023-06-13T18:32:29.683Z,4.43
2023-06-13T18:35:00.432Z,4.10
2023-06-13T18:37:31.093Z,4.43
2023-06-13T18:40:01.253Z,4.05
2023-06-13T18:42:32.270Z,4.45
2023-06-13T18:45:02.428Z,4.10
2023-06-13T18:47:33.422Z,4.30
2023-06-13T18:50:04.472Z,4.07
2023-06-13T18:52:35.213Z,3.97
2023-06-13T18:55:06.063Z,4.15
2023-06-13T18:57:36.700Z,4.50
2023-06-13T19:00:08.827Z,4.95
2023-06-13T19:02:39.871Z,4.68
2023-06-13T19:05:10.517Z,4.97
2023-06-13T19:07:41.330Z,5.15
2023-06-13T19:10:11.832Z,5.10
2023-06-13T19:12:44.923Z,5.35
2023-06-13T19:17:47.044Z,4.88
2023-06-13T19:20:17.509Z,4.72
2023-06-13T19:22:49.424Z,5.85
2023-06-13T19:25:21.042Z,4.78
2023-06-13T19:27:53.101Z,4.18
2023-06-13T19:30:26.701Z,4.65
2023-06-13T19:33:00.311Z,4.50
2023-06-13T19:35:32.086Z,4.80
2023-06-13T19:38:04.324Z,4.60
2023-06-13T19:40:34.761Z,4.88
2023-06-13T19:43:05.618Z,4.43
2023-06-13T19:45:35.877Z,4.97
2023-06-13T19:48:12.881Z,3.97
2023-06-13T19:50:43.350Z,4.88
2023-06-13T19:53:14.239Z,4.45
2023-06-13T19:55:44.728Z,5.22
2023-06-13T19:58:15.608Z,4.43
2023-06-13T20:00:46.575Z,4.60
2023-06-13T20:03:17.929Z,5.00
2023-06-13T20:05:49.183Z,5.15
2023-06-13T20:08:19.925Z,6.22
2023-06-13T20:10:50.590Z,5.43
2023-06-13T20:13:22.624Z,5.28
2023-06-13T20:15:54.584Z,6.18
2023-06-13T20:18:25.711Z,5.30
2023-06-13T20:20:55.833Z,5.15
2023-06-13T20:23:26.991Z,5.65
2023-06-13T20:25:57.622Z,5.03
2023-06-13T20:28:28.362Z,4.75
2023-06-13T20:30:58.503Z,5.47
2023-06-13T20:33:29.076Z,6.63
2023-06-13T20:36:00.182Z,7.40
2023-06-13T20:38:31.284Z,6.93
2023-06-13T20:41:01.540Z,6.05
2023-06-13T20:43:33.094Z,7.90
2023-06-13T20:46:03.329Z,8.30
2023-06-13T20:48:39.195Z,9.27
2023-06-13T20:51:09.740Z,12.35
2023-06-13T20:53:40.514Z,12.40
2023-06-13T20:56:10.800Z,10.70
2023-06-13T20:58:41.430Z,9.80
2023-06-13T21:01:13.494Z,10.57
2023-06-13T21:03:44.157Z,8.48
2023-06-13T21:06:14.361Z,8.75
2023-06-13T21:08:45.602Z,7.68
2023-06-13T21:11:15.955Z,6.38
2023-06-13T21:13:46.827Z,5.60
2023-06-13T21:16:24.113Z,5.90
2023-06-13T21:18:54.861Z,5.30
2023-06-13T21:21:25.214Z,5.40
2023-06-13T21:23:56.048Z,5.75
2023-06-13T21:26:26.280Z,5.70
2023-06-13T21:28:56.885Z,5.72
2023-06-13T21:31:27.596Z,12.10
2023-06-13T21:33:59.166Z,10.98
2023-06-13T21:36:29.921Z,8.57
2023-06-13T21:39:00.660Z,8.20
2023-06-13T21:41:30.962Z,8.68
2023-06-13T21:44:01.644Z,9.57
2023-06-13T21:46:32.055Z,11.52
2023-06-13T21:49:02.684Z,9.23
2023-06-13T21:51:34.033Z,15.90
2023-06-13T21:54:05.493Z,19.17
2023-06-13T21:56:35.698Z,18.92
2023-06-13T21:59:06.360Z,29.85
2023-06-13T22:01:36.845Z,19.52
2023-06-13T22:04:07.658Z,21.58
2023-06-13T22:06:41.523Z,13.57
2023-06-13T22:09:13.242Z,18.73
2023-06-13T22:11:46.694Z,16.02
2023-06-13T22:14:17.686Z,14.43
2023-06-13T22:16:54.056Z,15.38
2023-06-13T22:19:26.043Z,14.07
2023-06-13T22:21:56.579Z,14.55
2023-06-13T22:24:27.869Z,13.68
2023-06-13T22:26:58.336Z,13.10
2023-06-13T22:29:29.038Z,11.65
2023-06-13T22:31:59.330Z,11.77
2023-06-13T22:34:30.000Z,11.10
2023-06-13T22:37:00.163Z,11.88
2023-06-13T22:39:30.756Z,11.57
2023-06-13T22:42:01.612Z,10.90
2023-06-13T22:44:32.505Z,10.55
2023-06-13T22:47:02.816Z,10.98
2023-06-13T22:49:33.636Z,10.63
2023-06-13T22:52:05.896Z,12.43
2023-06-13T22:54:40.328Z,21.75
2023-06-13T22:57:10.559Z,12.57
2023-06-13T22:59:41.324Z,9.82
2023-06-13T23:02:11.788Z,9.65
2023-06-13T23:04:43.097Z,9.43
2023-06-13T23:07:13.239Z,9.50
2023-06-13T23:09:43.925Z,9.15
2023-06-13T23:12:14.160Z,8.52
2023-06-13T23:14:44.905Z,8.23
2023-06-13T23:17:16.888Z,6.43
2023-06-13T23:19:55.556Z,12.52
2023-06-13T23:22:30.413Z,11.43
2023-06-13T23:25:01.530Z,12.00
2023-06-13T23:27:34.207Z,8.80
2023-06-13T23:30:07.015Z,9.00
2023-06-13T23:32:39.694Z,7.90
2023-06-13T23:35:14.959Z,7.25
2023-06-13T23:37:45.351Z,6.78
2023-06-13T23:40:17.549Z,5.55
2023-06-13T23:42:47.870Z,4.88
2023-06-13T23:45:18.574Z,4.70
2023-06-13T23:47:48.761Z,7.60
2023-06-13T23:50:20.141Z,7.63
2023-06-13T23:52:50.411Z,6.78
2023-06-13T23:55:21.195Z,6.57
2023-06-13T23:57:51.645Z,4.22
